Ramona, Texas
Current Conditions -  °F | °C
As of 11:35 AM on Monday 22 Dec 2014 (Local Time) from KT65 Reporting Station
Broken Clouds Broken Clouds  
Wind Chill: 73°   Ceiling: 1800
Heat Index: 73°   Visibility: 7mi
Dew Point: 62°   Wind: 17mph
Humidity: 69%   Direction: 200°SSW
Pressure: 29.76"   Gusts: 22mph
Location:  26.1701°N, 97.9943°W
Report Text: KT65 221735Z AUTO 20015G19KT 7SM BKN018 23/17 A2976 RMK AO2 T02280168
Loading
Personal Weather Stations






























Interactive Weather Map New forecast layout! Learn more

10-Day Weather Forecast

Advertisements
Track Severe Weather on mobile